Latest Weather Observations for Ernabella/Pukatja

IDD60801

Issued at 7:01 am CST Sunday 4 December 2016 (issued every 30 minutes, with the page automatically refreshed every 10 minutes)

About weather observations | Map of weather stations | Latest weather observations for NT | Other Formats
Station Details ID: 016097 Name: PUKATJA Lat: -26.26 Lon: 132.18 Height: 703.2 m
Data from the previous 72 hours. | See also: Recent months at Ernabella/Pukatja
Date/Time
CST
Temp
°C
App
Temp
°C
Dew
Point
°C
Rel
Hum
%
Delta-T
°C
Wind Press
QNH
hPa
Press
MSL
hPa
Rain since
9am
mm
Dir  Spd
km/h
Gust
km/h
Spd
kts
Gust
kts
04/06:30am 25.1 22.7 14.3 51 6.6 NNW 20 30 11 16 1013.4 1008.6 0.2
04/06:00am 23.8 23.1 14.2 55 5.8 N 11 17 6 9 1013.1 1008.3 0.2
04/05:30am 24.3 23.0 13.8 52 6.4 N 13 22 7 12 1012.9 1008.0 0.2
04/05:00am 24.9 21.6 14.1 51 6.6 N 24 39 13 21 1013.0 1008.2 0.2
04/04:30am 25.6 21.9 12.8 45 7.7 N 24 35 13 19 1012.4 1007.5 0.2
04/04:00am 25.0 22.5 13.5 48 6.9 NNE 19 28 10 15 1011.9 1007.1 0.2
04/03:30am 25.5 22.5 13.7 48 7.2 N 22 35 12 19 1012.4 1007.5 0.2
04/03:00am 25.0 21.7 13.9 50 6.7 NNE 24 35 13 19 1012.4 1007.5 0.2
04/02:30am 25.4 23.6 13.3 47 7.3 N 15 20 8 11 1012.8 1007.9 0.2
04/02:00am 25.9 24.3 12.7 44 7.9 N 13 22 7 12 1013.0 1008.2 0.2
04/01:30am 26.0 24.4 12.8 44 7.9 NNE 13 22 7 12 1013.0 1008.2 0.2
04/01:00am 24.2 23.4 14.0 53 6.2 ESE 11 15 6 8 1013.3 1008.5 0.2
04/12:30am 24.3 23.6 14.4 54 6.0 ENE 11 15 6 8 1013.3 1008.5 0.2
04/12:00am 24.5 24.4 14.0 52 6.4 NE 7 11 4 6 1013.5 1008.7 0.2
 
Date/Time
CST
Temp
°C
App
Temp
°C
Dew
Point
°C
Rel
Hum
%
Delta-T
°C
Wind Press
QNH
hPa
Press
MSL
hPa
Rain since
9am
mm
Dir  Spd
km/h
Gust
km/h
Spd
kts
Gust
kts
03/11:30pm 25.1 23.9 13.9 49 6.8 N 13 24 7 13 1014.0 1009.1 0.2
03/11:00pm 25.6 22.5 13.5 47 7.3 N 22 33 12 18 1014.2 1009.3 0.2
03/10:30pm 25.3 23.5 14.4 50 6.7 NNE 17 22 9 12 1014.4 1009.6 0.2
03/10:00pm 24.3 23.5 15.0 56 5.7 NE 13 17 7 9 1013.5 1008.7 0.2
03/09:30pm 24.1 23.9 14.8 56 5.7 NNE 9 13 5 7 1012.8 1007.9 0.2
03/09:00pm 24.5 24.0 14.9 55 5.9 NE 11 15 6 8 1012.5 1007.6 0.2
03/08:30pm 24.8 23.5 14.9 54 6.1 E 15 20 8 11 1012.4 1007.5 0.2
03/08:00pm 25.6 24.3 14.7 51 6.7 ESE 15 20 8 11 1012.5 1007.6 0.2
03/07:30pm 25.8 24.9 14.9 51 6.8 SE 13 20 7 11 1012.7 1007.8 0.2
03/07:00pm 26.8 25.3 14.2 46 7.7 SE 15 19 8 10 1012.7 1007.8 0.2
03/06:30pm 27.9 26.2 12.3 38 9.4 SSW 13 20 7 11 1012.7 1007.8 0.2
03/06:00pm 28.5 26.5 12.8 38 9.5 WSW 15 19 8 10 1012.7 1007.8 0.2
03/05:30pm 28.5 25.9 12.0 36 9.9 W 17 22 9 12 1012.8 1007.9 0.2
03/05:00pm 28.5 25.3 12.0 36 9.9 W 20 28 11 15 1012.9 1008.0 0.2
03/04:30pm 29.0 26.3 11.6 34 10.4 W 17 24 9 13 1013.1 1008.3 0.2
03/04:00pm 29.1 25.6 12.1 35 10.2 WNW 22 30 12 16 1013.3 1008.5 0.2
03/03:30pm 28.4 25.3 13.5 40 9.1 W 22 32 12 17 1013.4 1008.6 0.2
03/03:00pm 30.3 25.9 11.8 32 11.1 WNW 26 37 14 20 1013.7 1008.9 0.2
03/02:30pm 32.4 29.9 11.0 27 12.8 NW 15 24 8 13 1013.3 1008.5 0.2
03/02:00pm 32.5 29.1 11.1 27 12.8 WNW 20 30 11 16 1013.7 1008.9 0.2
03/01:30pm 31.8 27.9 12.1 30 11.9 WNW 24 33 13 18 1014.1 1009.2 0.2
03/01:00pm 32.0 28.6 10.7 27 12.7 NW 19 28 10 15 1014.3 1009.5 0.2
03/12:30pm 31.4 27.8 10.7 28 12.3 NW 20 28 11 15 1014.7 1009.9 0.2
03/12:00pm 31.5 28.2 10.8 28 12.3 NW 19 32 10 17 1014.7 1009.9 0.2
03/11:30am 30.6 29.9 12.0 32 11.2 NW 7 13 4 7 1015.0 1010.2 0.2
03/11:00am 29.5 28.2 12.4 35 10.3 WSW 11 17 6 9 1014.9 1010.1 0.0
03/10:30am 28.1 26.6 13.2 39 9.1 W 13 17 7 9 1015.0 1010.2 0.0
03/10:00am 27.0 26.7 14.4 46 7.8 WNW 9 15 5 8 1015.2 1010.4 0.0
03/09:30am 26.2 25.4 15.0 50 7.0 W 13 15 7 8 1015.4 1010.5 0.0
03/09:00am 24.7 25.9 16.9 62 5.0 W 6 9 3 5 1015.7 1010.9 0.0
03/08:30am 24.4 23.6 15.1 56 5.7 SSE 13 19 7 10 1015.6 1010.8 0.0
03/08:00am 23.3 23.8 17.5 70 3.7 WSW 11 13 6 7 1015.6 1010.8 0.2
03/07:30am 23.6 24.0 16.4 64 4.5 S 9 11 5 6 1015.7 1010.9 0.2
03/07:00am 23.5 23.1 15.3 60 5.1 SW 11 15 6 8 1015.6 1010.8 0.2
03/06:30am 24.5 23.8 13.1 49 6.8 WNW 9 11 5 6 1014.9 1010.1 0.2
03/06:00am 25.2 23.0 12.1 44 7.7 W 15 20 8 11 1014.3 1009.5 0.2
03/05:30am 24.6 20.6 12.9 48 7.0 SW 26 35 14 19 1013.9 1009.0 0.2
03/05:00am 25.9 21.2 12.0 42 8.2 SW 28 37 15 20 1013.6 1008.8 0.2
03/04:30am 25.7 23.4 11.8 42 8.2 WSW 15 20 8 11 1013.3 1008.5 0.2
03/04:00am 25.2 23.2 12.8 46 7.4 W 15 19 8 10 1013.2 1008.4 0.2
03/03:30am 24.6 22.6 13.8 51 6.5 WSW 17 19 9 10 1013.2 1008.4 0.2
03/03:00am 25.1 22.0 13.3 48 7.1 W 22 28 12 15 1013.4 1008.6 0.2
03/02:30am 24.7 23.6 13.0 48 7.0 W 11 13 6 7 1013.3 1008.5 0.2
03/02:00am 24.4 23.2 12.7 48 7.0 WSW 11 13 6 7 1012.7 1007.8 0.2
03/01:30am 24.2 24.0 13.1 50 6.6 SW 6 9 3 5 1012.5 1007.6 0.2
03/01:00am 24.1 25.1 13.3 51 6.5 CALM 0 0 0 0 1012.7 1007.8 0.2
03/12:30am 23.5 24.1 13.1 52 6.2 SSW 2 6 1 3 1013.1 1008.3 0.2
03/12:00am 24.3 23.9 12.9 49 6.8 WSW 7 9 4 5 1013.3 1008.5 0.2
 
Date/Time
CST
Temp
°C
App
Temp
°C
Dew
Point
°C
Rel
Hum
%
Delta-T
°C
Wind Press
QNH
hPa
Press
MSL
hPa
Rain since
9am
mm
Dir  Spd
km/h
Gust
km/h
Spd
kts
Gust
kts
02/11:30pm 24.0 24.2 12.9 50 6.6 E 4 7 2 4 1013.6 1008.8 0.2
02/11:00pm 24.2 24.0 13.1 50 6.6 S 6 7 3 4 1013.6 1008.8 0.2
02/10:30pm 23.9 23.8 13.4 51 6.3 WNW 6 11 3 6 1013.9 1009.0 0.2
02/10:00pm 24.8 24.5 13.4 49 6.9 WNW 7 13 4 7 1014.1 1009.2 0.2
02/09:30pm 24.2 19.6 13.4 51 6.5 SW 30 46 16 25 1014.4 1009.6 0.2
02/09:19pm 24.5 18.5 13.4 50 6.7 SW 37 56 20 30 1014.6 1009.8 0.2
02/09:00pm 24.3 17.8 12.9 49 6.8 SW 39 50 21 27 1014.5 1009.7 0.2
02/08:30pm 23.4 16.6 14.4 57 5.5 SW 43 56 23 30 1014.7 1009.9 0.2
02/08:11pm 25.3 19.1 13.8 49 7.0 SW 39 61 21 33 1014.6 1009.8 0.2
02/08:00pm 25.6 19.5 14.1 49 7.0 SW 39 54 21 29 1014.1 1009.2 0.2
02/07:32pm 25.2 17.7 14.0 49 6.8 SW 46 69 25 37 1013.0 1008.2 0.2
02/07:30pm 25.1 18.2 13.9 49 6.8 SW 43 59 23 32 1012.9 1008.0 0.2
02/07:04pm 29.0 24.6 11.6 34 10.4 SW 26 46 14 25 1012.5 1007.6 0.2
02/07:00pm 30.1 26.0 10.1 29 11.7 SSW 22 30 12 16 1012.1 1007.3 0.2
02/06:30pm 28.6 25.5 12.1 36 9.9 SSW 20 35 11 19 1011.4 1006.5 0.2
02/06:02pm 25.1 20.5 16.0 57 5.7 WSW 35 54 19 29 1012.1 1007.3 0.0
02/06:00pm 25.5 20.3 15.5 54 6.2 WSW 37 54 20 29 1012.0 1007.2 0.0
02/05:54pm 26.4 21.9 15.4 50 6.9 WSW 33 54 18 29 1011.7 1006.9 0.0
02/05:30pm 29.4 24.6 11.5 33 10.7 SSW 28 35 15 19 1010.5 1005.7 0.0
02/05:01pm 31.9 24.4 9.4 25 13.1 SSW 39 57 21 31 1010.0 1005.1 0.0
02/05:00pm 31.9 24.0 9.4 25 13.1 SSW 41 57 22 31 1010.0 1005.1 0.0
02/04:58pm 31.7 23.2 9.3 25 13.0 SSW 44 63 24 34 1010.0 1005.1 0.0
02/04:37pm 32.5 28.9 9.9 25 13.3 WNW 19 57 10 31 1010.2 1005.3 0.0
02/04:30pm 35.8 32.1 4.2 14 17.3 NNW 13 24 7 13 1009.7 1004.8 0.0
02/04:00pm 36.3 32.2 4.6 14 17.5 N 15 24 8 13 1009.8 1004.9 0.0
02/03:30pm 37.1 33.2 5.2 14 17.9 NNE 15 30 8 16 1009.9 1005.0 0.0
02/03:00pm 37.2 32.9 5.3 14 17.9 NNW 17 30 9 16 1010.2 1005.3 0.0
02/02:30pm 37.0 33.4 5.1 14 17.8 NNE 13 26 7 14 1010.9 1006.0 0.0
02/02:00pm 36.8 32.6 5.9 15 17.4 N 17 32 9 17 1011.4 1006.5 0.0
02/01:30pm 35.6 31.2 5.0 15 16.9 N 17 33 9 18 1011.8 1007.0 0.0
02/01:00pm 35.4 31.8 4.8 15 16.9 NNE 13 24 7 13 1012.0 1007.2 0.0
02/12:30pm 34.8 29.4 4.4 15 16.6 ENE 22 35 12 19 1012.6 1007.7 0.0
02/12:00pm 34.5 28.8 5.0 16 16.2 ENE 24 37 13 20 1012.9 1008.0 0.0
02/11:30am 33.5 27.8 5.1 17 15.6 ENE 24 35 13 19 1013.2 1008.4 0.0
02/11:00am 32.9 26.9 5.5 18 15.1 ENE 26 33 14 18 1013.4 1008.6 0.0
02/10:30am 31.6 25.2 5.2 19 14.4 ENE 28 39 15 21 1013.4 1008.6 0.0
02/10:00am 30.6 24.7 5.8 21 13.5 ENE 26 39 14 21 1013.3 1008.5 0.0
02/09:30am 28.8 25.5 6.2 24 12.3 NE 13 22 7 12 1013.3 1008.5 0.0
02/09:00am 28.3 23.7 5.8 24 12.1 E 19 24 10 13 1012.9 1008.0 0.0
02/08:30am 27.7 23.1 6.5 26 11.5 ENE 20 28 11 15 1012.9 1008.0 0.0
02/08:00am 27.8 22.1 6.6 26 11.6 ESE 26 37 14 20 1013.2 1008.4 0.0
02/07:30am 26.5 22.2 8.0 31 10.3 SE 20 30 11 16 1013.4 1008.6 0.0
02/07:00am 27.0 23.1 6.9 28 11.0 SE 17 26 9 14 1013.5 1008.7 0.0
02/06:30am 26.1 22.0 7.7 31 10.1 S 19 28 10 15 1013.1 1008.3 0.0
02/06:00am 27.2 23.4 6.0 26 11.4 SSE 15 20 8 11 1012.9 1008.0 0.0
02/05:30am 27.1 22.0 6.0 26 11.4 SE 22 33 12 18 1011.8 1007.0 0.0
02/05:00am 26.9 22.1 5.8 26 11.3 SE 20 28 11 15 1011.3 1006.4 0.0
02/04:30am 27.3 22.5 5.6 25 11.6 SE 20 30 11 16 1011.0 1006.1 0.0
02/04:00am 27.6 23.0 5.8 25 11.7 SE 19 28 10 15 1010.7 1005.9 0.0
02/03:30am 28.1 21.8 5.6 24 12.1 SSE 28 37 15 20 1010.4 1005.6 0.0
02/03:00am 28.2 21.1 5.7 24 12.1 SSE 32 41 17 22 1010.1 1005.2 0.0
02/02:30am 28.1 22.4 6.8 26 11.7 S 26 35 14 19 1010.3 1005.4 0.0
02/02:00am 28.2 23.7 6.9 26 11.7 S 20 30 11 16 1010.1 1005.2 0.0
02/01:30am 28.6 24.2 7.2 26 11.9 SSW 20 33 11 18 1010.3 1005.4 0.0
02/01:00am 28.4 24.2 8.1 28 11.4 SSW 20 30 11 16 1010.5 1005.7 0.0
02/12:30am 28.3 22.9 8.1 28 11.3 SW 26 33 14 18 1010.4 1005.6 0.0
02/12:00am 28.9 22.9 8.6 28 11.5 WSW 30 39 16 21 1010.4 1005.6 0.0
 
Date/Time
CST
Temp
°C
App
Temp
°C
Dew
Point
°C
Rel
Hum
%
Delta-T
°C
Wind Press
QNH
hPa
Press
MSL
hPa
Rain since
9am
mm
Dir  Spd
km/h
Gust
km/h
Spd
kts
Gust
kts
01/11:43pm 30.0 24.2 7.8 25 12.5 SW 28 46 15 25 1010.4 1005.6 0.0
01/11:30pm 30.1 24.9 7.3 24 12.7 SW 24 33 13 18 1010.4 1005.6 0.0
01/11:00pm 30.0 24.7 8.4 26 12.3 SW 26 37 14 20 1010.5 1005.7 0.0
01/10:30pm 30.9 24.6 7.4 23 13.2 WSW 30 39 16 21 1010.1 1005.2 0.0
01/10:02pm 32.0 25.4 6.2 20 14.3 WSW 30 50 16 27 1009.4 1004.5 0.0
01/10:00pm 32.1 25.9 6.3 20 14.3 WSW 28 37 15 20 1009.4 1004.5 0.0
01/09:53pm 32.8 27.0 4.6 17 15.3 WSW 24 37 13 20 1009.2 1004.4 0.0
01/09:30pm 32.9 28.4 -0.2 12 16.6 NNW 13 19 7 10 1008.5 1003.6 0.0
01/09:00pm 33.8 28.9 -0.7 11 17.3 NNW 15 20 8 11 1008.3 1003.4 0.0
01/08:30pm 34.6 29.2 -1.4 10 17.9 NNW 17 28 9 15 1008.0 1003.1 0.0
01/08:00pm 34.6 29.6 -1.4 10 17.9 NW 15 20 8 11 1007.6 1002.7 0.0
01/07:30pm 35.0 30.4 -1.1 10 18.1 NW 13 19 7 10 1007.3 1002.4 0.0
01/07:00pm 35.9 30.8 -1.9 9 18.8 NW 15 20 8 11 1006.9 1002.0 0.0
01/06:30pm 36.9 30.9 -2.7 8 19.6 NW 19 28 10 15 1006.6 1001.7 0.0
01/06:00pm 36.9 30.9 -2.7 8 19.6 NW 19 30 10 16 1006.5 1001.6 0.0
01/05:30pm 37.4 30.5 -2.4 8 19.9 WNW 24 43 13 23 1006.5 1001.6 0.0
01/05:00pm 37.7 31.2 -2.2 8 20.0 NNW 22 33 12 18 1006.5 1001.6 0.0
01/04:30pm 37.5 31.8 -0.7 9 19.6 WNW 19 30 10 16 1006.8 1001.9 0.0
01/04:00pm 38.7 32.3 -1.4 8 20.4 WNW 22 39 12 21 1006.9 1002.0 0.0
01/03:30pm 37.3 29.9 -0.9 9 19.5 NW 28 43 15 23 1007.5 1002.6 0.0
01/03:11pm 37.1 28.9 0.4 10 19.1 NW 33 54 18 29 1007.5 1002.6 0.0
01/03:00pm 37.2 32.2 -0.9 9 19.4 WNW 15 39 8 21 1007.6 1002.7 0.0
01/02:30pm 37.2 30.1 -0.9 9 19.5 NW 26 39 14 21 1007.6 1002.7 0.0
01/02:00pm 38.0 31.4 -0.3 9 19.8 WNW 24 37 13 20 1008.0 1003.1 0.0
01/01:30pm 39.1 32.8 -1.1 8 20.7 WNW 22 32 12 17 1008.2 1003.3 0.0
01/01:00pm 38.6 31.7 0.1 9 20.1 NW 26 39 14 21 1008.7 1003.8 0.0
01/12:30pm 38.9 32.0 0.3 9 20.3 WNW 26 39 14 21 1009.1 1004.3 0.0
01/12:00pm 37.6 31.2 0.8 10 19.3 NW 24 39 13 21 1009.7 1004.8 0.0
01/11:57am 37.6 32.3 -0.6 9 19.6 NW 17 39 9 21 1009.6 1004.7 0.0
01/11:30am 36.0 31.9 2.1 12 18.0 W 13 20 7 11 1009.9 1005.0 0.0
01/11:00am 37.1 32.4 3.0 12 18.5 WSW 17 30 9 16 1010.2 1005.3 0.0
01/10:30am 35.0 29.2 2.5 13 17.3 W 22 32 12 17 1010.5 1005.7 0.0
01/10:00am 35.4 30.1 1.7 12 17.7 WNW 19 26 10 14 1010.6 1005.8 0.0
01/09:30am 35.7 31.9 1.9 12 17.9 W 11 17 6 9 1010.4 1005.6 0.0
01/09:00am 34.1 31.1 1.8 13 16.9 NW 7 15 4 8 1010.3 1006.0 0.0
01/08:30am 32.0 29.1 1.2 14 15.7 W 6 9 3 5 1010.4 1006.1 0.0
01/08:00am 30.6 27.6 1.0 15 15.0 E 6 7 3 4 1010.3 1006.0 0.0
01/07:30am 28.9 26.4 1.4 17 13.8 N 4 6 2 3 1010.2 1005.9 0.0
01/07:00am 27.2 24.9 3.0 21 12.4 WSW 4 6 2 3 1010.0 1005.7 0.0
01/06:30am 23.4 21.1 4.9 30 9.6 SW 6 7 3 4 1010.1 1005.8 0.0

Other Formats:

Comma delimited format used in spreadsheet applications
http://www.bom.gov.au/fwo/IDD60801/IDD60801.94474.axf

JavaScript Object Notation format (JSON) in row-major order
http://www.bom.gov.au/fwo/IDD60801/IDD60801.94474.json